createdAt,value
2018-06-25T00:02:23.948Z,87.93
2018-06-25T00:05:00.744Z,95.23
2018-06-25T00:07:36.915Z,80.57
2018-06-25T00:10:12.425Z,83.93
2018-06-25T00:12:48.283Z,89.27
2018-06-25T00:15:24.415Z,82.40
2018-06-25T00:18:00.900Z,87.90
2018-06-25T00:20:38.351Z,96.90
2018-06-25T00:23:16.176Z,98.30
2018-06-25T00:25:52.950Z,92.23
2018-06-25T00:28:34.102Z,93.93
2018-06-25T00:31:14.786Z,97.83
2018-06-25T00:33:54.726Z,89.33
2018-06-25T00:36:34.078Z,87.80
2018-06-25T00:39:12.153Z,94.33
2018-06-25T00:41:48.959Z,98.37
2018-06-25T00:44:24.826Z,96.03
2018-06-25T00:47:01.665Z,91.07
2018-06-25T00:49:43.188Z,92.57
2018-06-25T00:52:21.609Z,91.33
2018-06-25T00:54:56.824Z,95.27
2018-06-25T00:57:36.136Z,96.93
2018-06-25T01:00:10.747Z,89.63
2018-06-25T01:02:46.812Z,88.97
2018-06-25T01:05:22.473Z,92.23
2018-06-25T01:07:58.074Z,90.77
2018-06-25T01:10:35.302Z,84.93
2018-06-25T01:13:11.625Z,83.53
2018-06-25T01:15:51.295Z,82.27
2018-06-25T01:18:26.648Z,80.63
2018-06-25T01:21:03.782Z,82.17
2018-06-25T01:23:40.895Z,73.37
2018-06-25T01:26:17.384Z,84.70
2018-06-25T01:28:51.940Z,68.53
2018-06-25T01:31:31.996Z,69.90
2018-06-25T01:34:07.517Z,69.77
2018-06-25T01:36:44.314Z,76.73
2018-06-25T01:39:22.725Z,76.87
2018-06-25T01:42:02.180Z,70.57
2018-06-25T01:44:37.979Z,74.90
2018-06-25T01:47:18.165Z,66.17
2018-06-25T01:49:54.022Z,67.77
2018-06-25T01:52:30.284Z,62.37
2018-06-25T01:55:12.031Z,66.93
2018-06-25T01:57:51.089Z,61.17
2018-06-25T02:00:26.893Z,59.83
2018-06-25T02:03:02.970Z,58.97
2018-06-25T02:05:38.269Z,62.10
2018-06-25T02:08:15.380Z,61.90
2018-06-25T02:10:54.755Z,56.90
2018-06-25T02:13:35.137Z,56.20
2018-06-25T02:16:11.060Z,57.40
2018-06-25T02:18:47.233Z,54.70
2018-06-25T02:21:23.051Z,49.60
2018-06-25T02:23:59.047Z,51.47
2018-06-25T02:29:25.608Z,49.17
2018-06-25T02:32:01.617Z,47.27
2018-06-25T02:34:37.615Z,48.70
2018-06-25T02:37:12.499Z,55.20
2018-06-25T02:39:50.024Z,55.67
2018-06-25T02:42:25.839Z,51.73
2018-06-25T02:45:01.659Z,57.63
2018-06-25T02:47:38.271Z,49.07
2018-06-25T02:50:14.892Z,53.00
2018-06-25T02:52:51.377Z,50.93
2018-06-25T02:55:28.986Z,49.87
2018-06-25T02:58:05.110Z,49.33
2018-06-25T03:00:40.651Z,45.33
2018-06-25T03:03:16.569Z,55.30
2018-06-25T03:05:52.113Z,52.00
2018-06-25T03:08:28.118Z,56.53
2018-06-25T03:11:03.364Z,57.57
2018-06-25T03:13:39.548Z,58.57
2018-06-25T03:16:14.115Z,54.87
2018-06-25T03:18:49.798Z,46.83
2018-06-25T03:21:31.057Z,49.17
2018-06-25T03:24:07.534Z,58.93
2018-06-25T03:26:43.680Z,57.43
2018-06-25T03:29:19.879Z,51.87
2018-06-25T03:31:56.323Z,54.43
2018-06-25T03:34:32.180Z,54.47
2018-06-25T03:37:07.784Z,53.00
2018-06-25T03:39:42.976Z,59.53
2018-06-25T03:42:21.545Z,55.27
2018-06-25T03:44:57.535Z,56.70
2018-06-25T03:47:33.377Z,56.27
2018-06-25T03:50:08.931Z,54.07
2018-06-25T03:52:45.843Z,50.80
2018-06-25T03:55:22.499Z,66.07
2018-06-25T03:57:58.972Z,62.00
2018-06-25T04:00:35.464Z,74.90
2018-06-25T04:03:10.995Z,66.30
2018-06-25T04:05:48.637Z,49.87
2018-06-25T04:08:23.995Z,33.37
2018-06-25T04:10:59.958Z,44.67
2018-06-25T04:13:35.355Z,53.77
2018-06-25T04:16:11.836Z,73.93
2018-06-25T04:18:51.516Z,94.60
2018-06-25T04:21:27.354Z,68.20
2018-06-25T04:24:02.987Z,94.57
2018-06-25T04:26:38.814Z,87.23
2018-06-25T04:29:14.579Z,81.70
2018-06-25T04:31:50.588Z,93.60
2018-06-25T04:34:25.775Z,101.63
2018-06-25T04:37:05.452Z,91.63
2018-06-25T04:39:40.840Z,89.73
2018-06-25T04:42:16.473Z,97.93
2018-06-25T04:44:53.113Z,75.40
2018-06-25T04:47:28.965Z,75.10
2018-06-25T04:50:04.006Z,75.40
2018-06-25T04:52:40.005Z,65.63
2018-06-25T04:55:15.837Z,66.00
2018-06-25T04:57:53.121Z,55.13
2018-06-25T05:00:30.452Z,65.70
2018-06-25T05:03:05.452Z,68.57
2018-06-25T05:05:41.185Z,87.57
2018-06-25T05:08:16.815Z,77.90
2018-06-25T05:10:52.657Z,76.73
2018-06-25T05:13:28.498Z,78.00
2018-06-25T05:16:03.371Z,62.93
2018-06-25T05:18:38.895Z,55.80
2018-06-25T05:21:13.775Z,52.23
2018-06-25T05:23:49.947Z,48.97
2018-06-25T05:26:25.515Z,58.27
2018-06-25T05:29:00.281Z,58.70
2018-06-25T05:31:36.248Z,65.10
2018-06-25T05:34:11.842Z,70.77
2018-06-25T05:36:47.549Z,67.00
2018-06-25T05:39:22.745Z,74.07
2018-06-25T05:41:57.868Z,70.63
2018-06-25T05:44:34.009Z,67.23
2018-06-25T05:47:09.271Z,70.40
2018-06-25T05:49:45.611Z,68.57
2018-06-25T05:52:21.468Z,69.93
2018-06-25T05:54:58.764Z,73.67
2018-06-25T05:57:34.474Z,72.93
2018-06-25T06:00:11.600Z,68.00
2018-06-25T06:02:50.750Z,75.73
2018-06-25T06:05:43.214Z,76.97
